Time;durP1;ratioP1;P1;durP2;ratioP2;P2;SDS_P1;SDS_P2;PMS_P1;PMS_P2;Temp;Humidity;BMP_temperature;BMP_pressure;BME280_temperature;BME280_humidity;BME280_pressure;Samples;Min_cycle;Max_cycle;Signal;HPM_P1;HPM_P2
2022/07/11 00:01:13;;;;;;;11.13;5.30;;;;;;;16.37;77.00;102216.59;4967481;28;20258;-82
2022/07/11 00:03:39;;;;;;;8.38;5.05;;;;;;;16.39;77.49;102216.53;4965839;28;21268;-81
2022/07/11 00:06:05;;;;;;;10.15;5.03;;;;;;;16.34;77.56;102208.69;4968911;28;20023;-82
2022/07/11 00:08:30;;;;;;;8.50;5.25;;;;;;;16.32;77.64;102207.91;4965737;28;20031;-81
2022/07/11 00:10:56;;;;;;;9.85;5.78;;;;;;;16.29;77.75;102210.75;4967339;28;20027;-81
2022/07/11 00:13:21;;;;;;;10.88;5.38;;;;;;;16.30;77.89;102207.16;4966095;28;20030;-81
2022/07/11 00:15:46;;;;;;;9.45;5.80;;;;;;;16.29;78.11;102216.13;4966425;28;20031;-82
2022/07/11 00:18:12;;;;;;;10.90;5.88;;;;;;;16.25;78.28;102211.88;4966650;28;20023;-82
2022/07/11 00:20:37;;;;;;;8.02;5.10;;;;;;;16.17;78.39;102211.41;4971078;28;20026;-82
2022/07/11 00:23:02;;;;;;;8.00;5.70;;;;;;;16.17;78.59;102206.91;4968018;28;20291;-81
2022/07/11 00:25:27;;;;;;;9.50;5.72;;;;;;;16.12;78.85;102208.09;4968139;28;20038;-82
2022/07/11 00:27:53;;;;;;;10.30;6.25;;;;;;;16.09;78.92;102195.72;4969548;28;20113;-81
2022/07/11 00:30:18;;;;;;;10.32;5.70;;;;;;;16.11;78.88;102206.38;4969180;28;20035;-82
2022/07/11 00:32:44;;;;;;;10.10;6.15;;;;;;;16.08;79.35;102199.31;4968453;28;20031;-82
2022/07/11 00:35:09;;;;;;;10.32;6.30;;;;;;;16.08;79.43;102195.78;4967647;28;20414;-82
2022/07/11 00:37:34;;;;;;;12.20;6.25;;;;;;;15.98;79.97;102187.34;4968027;28;20030;-81
2022/07/11 00:40:00;;;;;;;8.07;6.20;;;;;;;15.99;80.26;102190.91;4970209;28;20031;-82
2022/07/11 00:42:25;;;;;;;10.13;6.20;;;;;;;15.93;80.44;102195.66;4966968;28;20030;-81
2022/07/11 00:44:51;;;;;;;8.63;6.05;;;;;;;15.89;80.69;102187.84;4969457;28;20113;-82
2022/07/11 00:47:16;;;;;;;10.70;6.60;;;;;;;15.88;80.92;102192.34;4968953;28;20277;-82
2022/07/11 00:49:41;;;;;;;8.13;6.30;;;;;;;15.84;80.95;102180.03;4967731;28;20490;-82
2022/07/11 00:52:09;;;;;;;9.73;6.13;;;;;;;15.86;80.87;102188.84;4965196;28;20050;-82
2022/07/11 00:54:34;;;;;;;12.43;7.07;;;;;;;15.82;81.57;102187.25;4968881;28;20045;-81
2022/07/11 00:57:00;;;;;;;11.43;7.03;;;;;;;15.78;81.25;102184.81;4970248;28;20385;-82
2022/07/11 00:59:25;;;;;;;9.50;6.40;;;;;;;15.80;81.40;102186.50;4968299;28;20038;-82
2022/07/11 01:01:51;;;;;;;11.48;6.32;;;;;;;15.77;81.03;102175.91;4965680;28;20026;-82
2022/07/11 01:04:16;;;;;;;11.00;7.00;;;;;;;15.79;81.18;102199.97;4967441;28;20081;-81
2022/07/11 01:06:41;;;;;;;10.82;6.80;;;;;;;15.75;81.90;102182.28;4967910;28;20027;-81
2022/07/11 01:09:06;;;;;;;12.05;7.32;;;;;;;15.68;81.73;102182.63;4967726;28;20073;-81
2022/07/11 01:11:32;;;;;;;11.90;7.45;;;;;;;15.65;81.91;102182.75;4967362;28;20150;-82
2022/07/11 01:13:58;;;;;;;11.65;6.57;;;;;;;15.64;82.06;102186.41;4970129;28;20043;-82
2022/07/11 01:16:23;;;;;;;11.23;6.93;;;;;;;15.64;82.07;102188.19;4970024;28;20171;-82
2022/07/11 01:18:53;;;;;;;11.48;6.55;;;;;;;15.65;82.30;102189.94;4968420;28;20065;-82
2022/07/11 01:21:19;;;;;;;13.57;7.07;;;;;;;15.59;82.45;102185.75;4968960;28;20038;-81
2022/07/11 01:23:47;;;;;;;13.95;7.63;;;;;;;15.58;82.92;102196.53;4969037;28;20042;-82
2022/07/11 01:26:13;;;;;;;12.82;7.50;;;;;;;15.54;83.39;102186.91;4970499;28;20158;-82
2022/07/11 01:28:39;;;;;;;13.32;7.60;;;;;;;15.52;83.17;102189.66;4967953;28;20493;-82
2022/07/11 01:31:04;;;;;;;11.10;7.55;;;;;;;15.47;83.30;102180.09;4967483;28;20086;-81
2022/07/11 01:33:32;;;;;;;12.38;7.72;;;;;;;15.48;83.78;102187.22;4968468;28;20061;-82
2022/07/11 01:35:59;;;;;;;11.88;7.53;;;;;;;15.42;84.29;102194.63;4969474;28;20031;-82
2022/07/11 01:38:25;;;;;;;11.40;7.93;;;;;;;15.39;84.74;102178.69;4967997;28;20093;-82
2022/07/11 01:40:50;;;;;;;11.85;8.15;;;;;;;15.38;84.72;102184.09;4967997;28;21653;-82
2022/07/11 01:43:15;;;;;;;19.70;8.75;;;;;;;15.30;84.92;102179.16;4969029;28;20522;-82
2022/07/11 01:45:41;;;;;;;13.95;8.07;;;;;;;15.29;85.17;102179.19;4967494;28;20034;-82
2022/07/11 01:48:06;;;;;;;14.48;8.95;;;;;;;15.25;85.52;102186.53;4973608;28;20019;-82
2022/07/11 01:50:31;;;;;;;16.23;8.68;;;;;;;15.12;86.06;102170.16;4991200;28;20436;-82
2022/07/11 01:52:57;;;;;;;15.80;9.85;;;;;;;15.08;86.90;102184.66;4991389;28;20047;-82
2022/07/11 01:55:22;;;;;;;13.95;10.00;;;;;;;15.06;87.33;102185.69;4993556;28;20023;-81
2022/07/11 01:57:47;;;;;;;14.43;9.70;;;;;;;15.08;86.86;102189.16;4993262;28;20019;-81
2022/07/11 02:00:13;;;;;;;15.52;9.10;;;;;;;15.08;86.89;102191.84;4977990;28;20035;-81
2022/07/11 02:02:38;;;;;;;15.25;9.48;;;;;;;15.09;86.75;102196.25;4969786;28;20489;-81
2022/07/11 02:05:04;;;;;;;13.00;8.65;;;;;;;15.08;86.61;102191.84;4971208;28;20476;-81
2022/07/11 02:10:13;;;;;;;12.30;9.18;;;;;;;15.08;86.81;102194.53;4968252;28;20049;-81
2022/07/11 02:12:38;;;;;;;12.88;9.38;;;;;;;15.07;86.89;102184.75;4968595;28;20319;-81
2022/07/11 02:15:04;;;;;;;12.18;9.07;;;;;;;15.01;87.06;102188.59;4966562;28;20050;-81
2022/07/11 02:17:29;;;;;;;14.70;9.02;;;;;;;14.93;87.10;102182.75;4968310;28;20089;-81
2022/07/11 02:19:54;;;;;;;11.57;9.32;;;;;;;14.97;87.36;102186.16;4968040;28;20034;-81
2022/07/11 02:22:19;;;;;;;16.15;10.07;;;;;;;14.87;87.97;102186.56;4966944;28;20043;-81
2022/07/11 02:24:45;;;;;;;15.10;9.60;;;;;;;14.79;88.32;102187.88;4968069;28;20042;-81
2022/07/11 02:27:10;;;;;;;15.13;9.93;;;;;;;14.82;88.21;102187.72;4969287;28;20538;-81
2022/07/11 02:29:35;;;;;;;16.30;10.25;;;;;;;14.76;88.51;102177.31;4964744;28;20110;-81
2022/07/11 02:32:01;;;;;;;16.80;10.07;;;;;;;14.76;88.41;102188.03;4966656;28;20033;-81
2022/07/11 02:34:27;;;;;;;16.23;10.35;;;;;;;14.77;88.54;102179.91;4968720;28;20027;-81
2022/07/11 02:36:52;;;;;;;15.00;9.68;;;;;;;14.79;88.38;102182.50;4968599;28;20101;-81
2022/07/11 02:39:18;;;;;;;15.18;9.50;;;;;;;14.83;88.22;102193.00;4967354;28;20031;-81
2022/07/11 02:41:43;;;;;;;16.83;10.73;;;;;;;14.81;88.57;102186.00;4965341;28;20034;-81
2022/07/11 02:44:08;;;;;;;15.40;10.35;;;;;;;14.75;88.51;102170.19;4966988;28;20476;-81
2022/07/11 02:46:33;;;;;;;14.05;9.80;;;;;;;14.77;88.60;102179.91;4966663;28;20209;-81
2022/07/11 02:48:59;;;;;;;16.25;11.20;;;;;;;14.81;88.71;102181.50;4966431;28;20548;-81
2022/07/11 02:51:24;;;;;;;19.30;11.35;;;;;;;14.81;88.93;102178.81;4962305;28;20492;-80
2022/07/11 02:53:49;;;;;;;19.90;10.95;;;;;;;14.79;89.18;102183.38;4982848;28;20034;-81
2022/07/11 02:56:14;;;;;;;18.70;11.15;;;;;;;14.84;89.13;102185.84;4969588;28;20441;-80
2022/07/11 02:58:40;;;;;;;15.77;11.07;;;;;;;14.85;88.88;102177.75;4965446;28;20030;-81
2022/07/11 03:01:05;;;;;;;16.73;11.10;;;;;;;14.92;88.91;102184.56;4965510;28;20376;-81
2022/07/11 03:03:30;;;;;;;19.38;11.60;;;;;;;14.99;88.75;102181.56;4965917;28;20026;-81
2022/07/11 03:05:56;;;;;;;19.80;11.35;;;;;;;15.03;88.45;102185.84;4967278;28;20404;-80
2022/07/11 03:08:21;;;;;;;16.70;10.73;;;;;;;15.07;88.19;102188.31;4966429;28;20035;-81
2022/07/11 03:10:46;;;;;;;15.23;10.68;;;;;;;15.11;87.94;102189.03;4966735;28;20054;-81
2022/07/11 03:13:12;;;;;;;13.30;10.07;;;;;;;15.15;87.57;102175.38;4964816;28;20126;-81
2022/07/11 03:15:37;;;;;;;15.82;10.48;;;;;;;15.13;87.88;102185.34;4959794;28;20109;-81
2022/07/11 03:18:03;;;;;;;15.10;10.65;;;;;;;15.14;88.14;102178.16;4977357;28;20041;-81
2022/07/11 03:20:28;;;;;;;15.98;10.50;;;;;;;15.18;88.03;102183.28;4956419;28;20057;-81
2022/07/11 03:22:53;;;;;;;15.13;11.02;;;;;;;15.21;87.78;102190.31;4955814;28;20027;-81
2022/07/11 03:25:18;;;;;;;14.73;10.75;;;;;;;15.22;87.93;102191.19;4958074;28;20031;-82
2022/07/11 03:27:44;;;;;;;18.40;10.98;;;;;;;15.25;87.50;102191.03;4956483;28;20026;-82
2022/07/11 03:30:10;;;;;;;15.52;10.10;;;;;;;15.26;87.70;102192.75;4960960;28;20073;-82
2022/07/11 03:32:35;;;;;;;17.83;10.43;;;;;;;15.32;87.57;102190.66;4958832;28;20084;-82
2022/07/11 03:37:45;;;;;;;;;;;;;;;15.49;85.40;102200.53;4956192;28;20073;-82
2022/07/11 03:40:11;;;;;;;12.02;8.93;;;;;;;15.42;86.80;102188.38;4955504;28;19922;-82
2022/07/11 03:42:36;;;;;;;13.48;8.98;;;;;;;15.41;86.97;102192.00;4972825;28;20106;-82
2022/07/11 03:45:01;;;;;;;12.70;8.63;;;;;;;15.44;87.18;102192.72;4962460;28;20476;-82
2022/07/11 03:47:27;;;;;;;14.93;8.60;;;;;;;15.50;87.00;102194.22;4961086;28;20038;-82
2022/07/11 03:49:52;;;;;;;11.98;9.07;;;;;;;15.52;86.97;102192.34;4964986;28;20187;-82
2022/07/11 03:52:17;;;;;;;12.27;8.88;;;;;;;15.56;86.93;102193.06;4966613;28;20054;-82
2022/07/11 03:54:43;;;;;;;13.07;8.70;;;;;;;15.65;86.68;102192.63;4967197;28;20038;-82
2022/07/11 03:57:08;;;;;;;13.55;8.40;;;;;;;15.67;86.67;102191.63;4971415;28;20034;-82
2022/07/11 03:59:33;;;;;;;11.32;8.60;;;;;;;15.68;86.36;102189.81;4968643;28;20052;-82
2022/07/11 04:01:58;;;;;;;11.55;7.75;;;;;;;15.76;86.31;102200.13;4969820;28;20038;-82
2022/07/11 04:04:24;;;;;;;12.18;8.25;;;;;;;15.75;86.32;102201.94;4969993;28;20047;-83
2022/07/11 04:06:49;;;;;;;13.88;7.80;;;;;;;15.78;86.48;102184.81;4970329;28;20030;-82
2022/07/11 04:09:15;;;;;;;11.75;8.55;;;;;;;15.78;86.13;102188.38;4969297;28;20313;-82
2022/07/11 04:11:40;;;;;;;11.90;8.07;;;;;;;15.76;86.56;102182.22;4970867;28;20030;-83
2022/07/11 04:14:05;;;;;;;11.77;8.48;;;;;;;15.80;86.25;102202.59;4967340;28;20035;-83
2022/07/11 04:16:31;;;;;;;11.93;7.82;;;;;;;15.81;86.25;102192.72;4971002;28;20037;-83
2022/07/11 04:18:56;;;;;;;10.40;8.13;;;;;;;15.80;86.49;102188.28;4970410;28;20053;-82
2022/07/11 04:21:21;;;;;;;14.20;8.10;;;;;;;15.86;85.97;102193.34;4970802;28;20035;-83
2022/07/11 04:23:47;;;;;;;10.50;7.60;;;;;;;15.88;86.01;102186.97;4971959;28;20023;-83
2022/07/11 04:26:12;;;;;;;12.13;7.50;;;;;;;15.91;85.59;102197.53;4968711;28;20580;-83
2022/07/11 04:28:38;;;;;;;13.30;8.00;;;;;;;15.92;85.82;102185.81;4970022;28;20054;-83
2022/07/11 04:31:03;;;;;;;13.18;7.65;;;;;;;15.98;85.43;102190.03;4970274;28;20031;-81
2022/07/11 04:33:28;;;;;;;9.45;7.47;;;;;;;16.02;85.01;102182.69;4970345;28;20034;-83
2022/07/11 04:35:54;;;;;;;13.32;6.95;;;;;;;16.04;85.08;102191.50;4970485;28;20451;-81
2022/07/11 04:38:21;;;;;;;11.75;7.32;;;;;;;16.04;84.79;102183.47;4968606;28;20034;-80
2022/07/11 04:40:47;;;;;;;12.20;7.50;;;;;;;16.11;84.82;102185.75;4968337;28;20077;-81
2022/07/11 04:43:13;;;;;;;12.35;7.05;;;;;;;16.16;84.71;102189.06;4969809;28;20041;-81
2022/07/11 04:45:39;;;;;;;13.15;7.40;;;;;;;16.13;85.02;102186.50;4967594;28;20097;-81
2022/07/11 04:48:04;;;;;;;11.35;7.30;;;;;;;16.14;85.04;102190.09;4970244;28;20030;-81
2022/07/11 04:50:29;;;;;;;12.43;7.00;;;;;;;16.15;84.66;102205.25;4966165;28;20080;-81
2022/07/11 04:52:55;;;;;;;11.65;7.00;;;;;;;16.14;84.11;102201.72;4969561;28;20054;-81
2022/07/11 04:55:20;;;;;;;10.18;6.63;;;;;;;16.15;84.93;102199.88;4968896;28;20405;-82
2022/07/11 04:57:45;;;;;;;9.68;6.65;;;;;;;16.17;84.78;102201.53;4969914;28;20109;-82
2022/07/11 05:00:11;;;;;;;14.93;6.80;;;;;;;16.17;84.75;102204.22;4968693;28;20094;-82
2022/07/11 05:02:37;;;;;;;12.07;6.57;;;;;;;16.16;84.41;102207.84;4970827;28;20057;-82
2022/07/11 05:05:02;;;;;;;8.60;6.07;;;;;;;16.18;84.14;102215.84;5009271;28;20031;-81
2022/07/11 05:07:28;;;;;;;9.98;6.38;;;;;;;16.20;84.61;102211.25;4992643;28;20035;-81
2022/07/11 05:09:53;;;;;;;9.10;6.10;;;;;;;16.25;84.68;102216.38;4992801;28;20034;-82
2022/07/11 05:12:20;;;;;;;8.32;6.63;;;;;;;16.22;84.64;102212.06;4979098;28;20023;-81
2022/07/11 05:14:45;;;;;;;11.15;6.47;;;;;;;16.26;84.47;102218.09;4973113;28;20209;-82
2022/07/11 05:17:10;;;;;;;11.80;6.10;;;;;;;16.28;83.75;102211.72;4971473;28;20424;-82
2022/07/11 05:19:35;;;;;;;9.40;5.95;;;;;;;16.34;83.84;102219.44;4971991;28;20034;-82
2022/07/11 05:22:01;;;;;;;11.35;6.18;;;;;;;16.34;83.42;102224.81;4972224;28;20030;-83
2022/07/11 05:24:26;;;;;;;8.85;6.20;;;;;;;16.35;83.43;102226.56;4966553;28;20034;-82
2022/07/11 05:26:52;;;;;;;11.57;6.38;;;;;;;16.36;83.39;102222.06;4970379;28;20035;-82
2022/07/11 05:29:17;;;;;;;11.02;6.47;;;;;;;16.37;83.21;102221.09;4967462;28;20027;-81
2022/07/11 05:31:45;;;;;;;8.63;6.07;;;;;;;16.38;83.06;102225.53;4960738;28;20473;-82
2022/07/11 05:34:11;;;;;;;10.00;6.18;;;;;;;16.39;82.94;102233.53;4971475;28;20153;-81
2022/07/11 05:36:36;;;;;;;10.88;6.53;;;;;;;16.40;83.29;102224.50;4972789;28;20496;-82
2022/07/11 05:39:01;;;;;;;15.00;6.88;;;;;;;16.44;83.57;102228.75;4968716;28;20061;-82
2022/07/11 05:41:27;;;;;;;9.68;6.40;;;;;;;16.48;83.36;102228.59;4967513;28;20400;-82
2022/07/11 05:43:52;;;;;;;9.60;6.20;;;;;;;16.50;83.30;102219.50;4983108;28;20038;-82
2022/07/11 05:46:17;;;;;;;9.70;6.38;;;;;;;16.48;83.40;102224.09;4974446;28;20023;-82
2022/07/11 05:48:42;;;;;;;10.02;6.38;;;;;;;16.56;82.73;102223.69;4972817;28;20396;-83
2022/07/11 05:51:08;;;;;;;10.18;6.47;;;;;;;16.56;83.04;102229.94;4981261;28;20031;-81
2022/07/11 05:53:33;;;;;;;11.75;6.22;;;;;;;16.58;83.39;102224.44;4989581;28;20073;-83
2022/07/11 05:55:58;;;;;;;12.20;6.10;;;;;;;16.56;83.00;102227.25;4972141;28;20038;-83
2022/07/11 05:58:24;;;;;;;10.15;5.53;;;;;;;16.64;83.20;102230.38;4971583;28;20122;-82
2022/07/11 06:00:50;;;;;;;9.30;5.78;;;;;;;16.67;83.08;102229.31;4969511;28;20062;-82
2022/07/11 06:03:15;;;;;;;11.57;5.72;;;;;;;16.65;83.26;102221.34;4976639;28;20061;-82
2022/07/11 06:05:40;;;;;;;10.60;5.95;;;;;;;16.67;83.29;102229.31;4974910;28;20213;-82
2022/07/11 06:10:50;;;;;;;8.25;5.68;;;;;;;16.62;83.34;102231.41;4975067;28;20081;-82
2022/07/11 06:13:16;;;;;;;10.40;6.13;;;;;;;16.64;83.69;102243.81;4974685;28;20059;-82
2022/07/11 06:15:41;;;;;;;9.18;6.07;;;;;;;16.65;83.49;102233.94;4977158;28;20591;-82
2022/07/11 06:18:06;;;;;;;10.88;6.63;;;;;;;16.62;83.95;102240.31;4970572;28;20030;-82
2022/07/11 06:20:32;;;;;;;10.50;6.70;;;;;;;16.64;84.13;102248.34;4964619;28;20033;-82
2022/07/11 06:22:57;;;;;;;11.32;6.32;;;;;;;16.64;83.99;102251.88;4969505;28;20066;-83
2022/07/11 06:25:22;;;;;;;8.90;6.18;;;;;;;16.72;83.84;102248.78;4969876;28;20027;-82
2022/07/11 06:27:47;;;;;;;16.70;6.45;;;;;;;16.72;83.81;102250.56;4966949;28;20084;-82
2022/07/11 06:30:13;;;;;;;11.77;6.15;;;;;;;16.65;84.12;102256.31;4975481;28;20027;-82
2022/07/11 06:32:39;;;;;;;8.90;6.55;;;;;;;16.61;84.17;102256.56;4969569;28;20345;-83
2022/07/11 06:35:05;;;;;;;8.43;6.20;;;;;;;16.61;84.15;102260.09;4981219;28;20033;-84
2022/07/11 06:37:30;;;;;;;11.70;6.07;;;;;;;16.56;84.80;102261.31;4992899;28;20019;-83
2022/07/11 06:39:55;;;;;;;10.90;6.47;;;;;;;16.60;85.24;102252.13;4971306;28;20034;-83
2022/07/11 06:42:21;;;;;;;12.10;6.68;;;;;;;16.60;85.39;102253.00;4968546;28;20401;-83
2022/07/11 06:44:46;;;;;;;10.32;6.60;;;;;;;16.60;85.85;102254.81;4972085;28;20022;-83
2022/07/11 06:47:11;;;;;;;19.73;12.68;;;;;;;16.61;85.83;102261.94;4968006;28;20033;-83
2022/07/11 06:49:37;;;;;;;13.23;9.18;;;;;;;16.60;86.78;102260.19;4971393;28;20035;-83
2022/07/11 06:52:03;;;;;;;11.23;7.88;;;;;;;16.55;85.96;102264.94;4969096;28;20480;-82
2022/07/11 06:54:28;;;;;;;9.70;6.47;;;;;;;16.56;86.38;102259.50;4972135;28;20038;-83
2022/07/11 06:56:53;;;;;;;11.68;7.53;;;;;;;16.59;86.44;102258.44;4970116;28;20540;-82
2022/07/11 06:59:19;;;;;;;10.15;6.95;;;;;;;16.63;86.42;102250.13;4970992;28;20026;-82
2022/07/11 07:01:44;;;;;;;10.27;6.57;;;;;;;16.72;85.94;102254.16;4967971;28;20061;-83
2022/07/11 07:04:09;;;;;;;8.50;6.28;;;;;;;16.79;85.28;102246.66;4970659;28;20157;-82
2022/07/11 07:06:35;;;;;;;9.48;5.57;;;;;;;16.80;84.06;102254.63;4972014;28;20508;-83
2022/07/11 07:09:03;;;;;;;7.13;5.60;;;;;;;16.69;84.61;102249.81;4970372;28;20030;-83
2022/07/11 07:11:28;;;;;;;6.57;5.32;;;;;;;16.74;84.71;102254.97;4969257;28;20031;-82
2022/07/11 07:13:53;;;;;;;7.25;5.38;;;;;;;16.89;84.09;102256.84;4975811;28;20096;-82
2022/07/11 07:16:18;;;;;;;7.75;5.20;;;;;;;16.97;82.63;102251.03;4967752;28;20508;-83
2022/07/11 07:18:45;;;;;;;6.72;4.95;;;;;;;17.04;82.94;102249.72;4973727;28;20204;-82
2022/07/11 07:21:11;;;;;;;7.30;4.30;;;;;;;17.09;82.03;102244.94;4970548;28;20030;-83
2022/07/11 07:23:36;;;;;;;5.35;4.05;;;;;;;17.11;81.31;102240.34;4976374;28;20026;-83
2022/07/11 07:26:01;;;;;;;7.68;4.25;;;;;;;17.14;81.30;102250.94;4972670;28;20026;-82
2022/07/11 07:28:28;;;;;;;11.13;7.15;;;;;;;17.19;81.02;102248.00;4970108;28;20369;-83
2022/07/11 07:30:54;;;;;;;7.57;4.88;;;;;;;17.08;80.44;102229.75;4967515;28;20559;-83
2022/07/11 07:33:19;;;;;;;5.43;3.67;;;;;;;17.15;80.92;102241.91;4968436;28;20034;-82
2022/07/11 07:35:44;;;;;;;4.85;3.20;;;;;;;17.22;80.62;102237.03;4971593;28;20030;-82
2022/07/11 07:38:10;;;;;;;4.28;3.13;;;;;;;17.34;80.00;102239.03;4965316;28;20022;-82
2022/07/11 07:40:35;;;;;;;5.75;3.30;;;;;;;17.51;79.70;102243.44;4971957;28;20502;-83
2022/07/11 07:43:01;;;;;;;3.38;2.78;;;;;;;17.57;78.42;102243.13;4969964;28;20038;-83
2022/07/11 07:45:26;;;;;;;4.30;3.20;;;;;;;17.64;77.89;102238.22;4969044;28;20041;-82
2022/07/11 07:47:52;;;;;;;3.97;2.67;;;;;;;17.80;77.87;102233.69;4970004;28;20492;-82
2022/07/11 07:50:17;;;;;;;3.03;2.50;;;;;;;17.91;76.86;102235.78;4973671;28;20018;-82
2022/07/11 07:52:42;;;;;;;3.58;2.45;;;;;;;18.01;76.25;102244.16;4967691;28;20046;-82
2022/07/11 07:55:08;;;;;;;3.08;1.70;;;;;;;18.10;75.98;102236.41;4972225;28;20050;-82
2022/07/11 07:57:34;;;;;;;2.90;2.20;;;;;;;18.16;75.81;102249.50;4964290;28;20045;-81
2022/07/11 08:02:43;;;;;;;2.55;2.10;;;;;;;18.08;75.06;102248.22;4972468;28;20040;-82
2022/07/11 08:05:09;;;;;;;2.78;1.95;;;;;;;18.16;75.00;102249.50;4968358;28;20477;-82
2022/07/11 08:07:34;;;;;;;2.75;2.17;;;;;;;18.29;74.10;102252.31;4968499;28;20034;-82
2022/07/11 08:10:00;;;;;;;1.85;1.42;;;;;;;18.40;73.09;102252.53;4971089;28;20038;-82
2022/07/11 08:12:25;;;;;;;1.17;1.10;;;;;;;18.63;71.82;102263.72;4972041;28;20031;-82
2022/07/11 08:14:51;;;;;;;2.20;1.23;;;;;;;18.89;70.14;102260.28;4970586;28;20468;-82
2022/07/11 08:17:16;;;;;;;1.00;0.80;;;;;;;19.64;69.92;102263.50;4983589;28;20038;-82
2022/07/11 08:19:42;;;;;;;1.35;0.70;;;;;;;20.58;65.48;102265.25;4992421;28;20049;-82
2022/07/11 08:22:07;;;;;;;1.17;1.00;;;;;;;21.18;62.71;102256.38;4993397;28;20081;-82
2022/07/11 08:24:33;;;;;;;4.07;2.42;;;;;;;21.58;60.82;102253.47;4996259;28;20039;-82
2022/07/11 08:26:58;;;;;;;1.02;0.90;;;;;;;21.55;59.95;102259.97;4986007;28;20038;-82
2022/07/11 08:29:23;;;;;;;0.80;0.80;;;;;;;21.53;60.57;102258.38;4974892;28;20460;-82
2022/07/11 08:31:48;;;;;;;0.85;0.60;;;;;;;21.50;60.42;102255.88;4967838;28;20054;-82
2022/07/11 08:34:14;;;;;;;1.23;0.80;;;;;;;21.35;60.45;102263.28;4968939;28;20039;-82
2022/07/11 08:36:40;;;;;;;1.75;1.17;;;;;;;21.17;60.88;102253.78;4967620;28;20395;-82
2022/07/11 08:39:05;;;;;;;2.00;1.10;;;;;;;20.88;61.96;102254.06;4967622;28;20362;-83
2022/07/11 08:41:31;;;;;;;5.93;1.40;;;;;;;20.67;62.61;102255.59;4964362;28;20031;-82
2022/07/11 08:43:58;;;;;;;1.40;1.27;;;;;;;20.57;63.48;102258.13;4962734;28;20114;-82
2022/07/11 08:46:25;;;;;;;1.13;1.02;;;;;;;20.36;63.36;102261.31;4987269;28;20122;-82
2022/07/11 08:48:52;;;;;;;1.33;1.23;;;;;;;20.14;65.19;102258.34;4983960;28;20093;-82
2022/07/11 08:51:18;;;;;;;1.80;1.10;;;;;;;20.08;65.41;102261.50;4963604;28;20031;-82
2022/07/11 08:53:46;;;;;;;2.15;1.20;;;;;;;19.96;64.58;102267.72;4970306;28;20493;-82
2022/07/11 08:56:17;;;;;;;1.45;1.17;;;;;;;19.82;65.22;102269.53;4972478;28;20069;-82
2022/07/11 08:58:46;;;;;;;1.35;1.20;;;;;;;19.71;65.99;102266.69;4963998;28;20027;-82
2022/07/11 09:01:16;;;;;;;1.42;1.30;;;;;;;19.65;66.44;102257.16;4965457;28;20492;-82
2022/07/11 09:03:41;;;;;;;1.40;1.30;;;;;;;19.62;66.62;102262.75;4969430;28;20348;-83
2022/07/11 09:06:07;;;;;;;2.08;1.80;;;;;;;19.66;66.90;102263.41;4970450;28;20022;-83
2022/07/11 09:08:34;;;;;;;1.90;1.80;;;;;;;19.84;66.86;102264.88;4968932;28;20071;-82
2022/07/11 09:11:00;;;;;;;2.00;1.83;;;;;;;20.07;65.86;102268.72;4967209;28;20074;-83
2022/07/11 09:13:30;;;;;;;3.05;1.90;;;;;;;20.17;65.33;102255.44;4968641;28;20034;-82
2022/07/11 09:16:03;;;;;;;2.13;1.67;;;;;;;20.32;64.81;102251.69;4971099;28;20447;-82
2022/07/11 09:18:36;;;;;;;2.63;1.90;;;;;;;20.38;64.54;102253.09;4969953;28;20852;-82
2022/07/11 09:26:51;;;;;;;3.03;2.25;;;;;;;21.22;62.39;102263.28;4967436;28;20118;-82
2022/07/11 09:29:25;;;;;;;4.13;2.15;;;;;;;21.31;61.91;102267.16;4971248;28;20030;-84
2022/07/11 09:31:55;;;;;;;4.07;2.50;;;;;;;20.97;61.76;102256.09;4960426;28;20046;-84
2022/07/11 09:34:23;;;;;;;2.30;2.10;;;;;;;20.85;62.43;102254.28;4967975;28;20043;-81
2022/07/11 09:36:54;;;;;;;3.95;2.72;;;;;;;20.88;62.28;102254.94;4962349;28;20137;-81
2022/07/11 09:39:29;;;;;;;6.30;2.95;;;;;;;20.93;62.67;102257.28;4971392;28;20172;-82
2022/07/11 09:41:55;;;;;;;3.67;2.65;;;;;;;21.05;62.82;102252.84;4969920;28;20077;-82
2022/07/11 09:44:24;;;;;;;4.60;2.53;;;;;;;21.09;62.08;102248.94;4952043;28;20035;-82
2022/07/11 09:46:51;;;;;;;3.80;2.40;;;;;;;21.17;62.24;102254.66;4963918;28;20034;-82
2022/07/11 09:49:48;;;;;;;4.05;3.30;;;;;;;21.22;61.81;102257.03;4970512;28;20535;-83
2022/07/11 09:52:17;;;;;;;4.13;3.45;;;;;;;21.24;60.79;102250.53;4981210;28;20035;-82
2022/07/11 09:55:00;;;;;;;4.78;4.00;;;;;;;21.26;60.94;102248.56;4969300;28;20343;-82
2022/07/11 09:57:30;;;;;;;5.55;3.90;;;;;;;21.33;61.31;102255.28;4962629;28;20032;-83
2022/07/11 09:59:55;;;;;;;5.07;4.45;;;;;;;21.40;60.54;102247.56;4951334;28;20137;-82
2022/07/11 10:02:21;;;;;;;7.47;5.07;;;;;;;21.42;60.83;102248.31;4964811;28;20114;-82
2022/07/11 10:04:48;;;;;;;6.00;4.38;;;;;;;21.29;60.96;102252.88;4970652;28;20035;-82
2022/07/11 10:07:13;;;;;;;5.32;4.00;;;;;;;21.23;61.62;102246.06;4968455;28;20101;-82
2022/07/11 10:09:39;;;;;;;4.95;4.15;;;;;;;21.12;61.27;102248.72;4968805;28;20125;-82
2022/07/11 10:12:04;;;;;;;5.28;3.65;;;;;;;21.17;61.88;102254.66;4967985;28;20050;-82
2022/07/11 10:14:30;;;;;;;5.00;3.97;;;;;;;21.07;61.99;102254.47;4967681;28;20484;-82
2022/07/11 10:17:05;;;;;;;6.63;4.20;;;;;;;21.00;62.41;102255.88;4969004;28;20548;-82
2022/07/11 10:19:37;;;;;;;6.13;4.18;;;;;;;21.03;61.86;102261.09;4970539;28;20033;-82
2022/07/11 10:22:11;;;;;;;7.90;4.53;;;;;;;20.97;62.57;102257.94;4970124;28;20038;-82
2022/07/11 10:24:52;;;;;;;5.07;3.92;;;;;;;21.10;62.62;102259.63;4967537;28;20034;-82
2022/07/11 10:27:35;;;;;;;4.85;4.18;;;;;;;21.13;62.96;102258.56;4970464;28;20031;-83
2022/07/11 10:30:01;;;;;;;5.57;4.35;;;;;;;21.11;62.12;102261.41;4963098;28;21602;-83
2022/07/11 10:32:27;;;;;;;4.75;3.92;;;;;;;21.22;62.45;102263.28;4961333;28;20110;-83
2022/07/11 10:35:11;;;;;;;5.82;4.15;;;;;;;21.36;62.10;102265.00;4967672;28;20117;-83
2022/07/11 10:37:54;;;;;;;6.15;4.72;;;;;;;21.57;61.97;102259.84;4962058;28;20042;-83
2022/07/11 10:40:45;;;;;;;5.90;5.20;;;;;;;21.70;61.03;102267.94;4967974;28;20042;-83
2022/07/11 10:43:20;;;;;;;8.05;6.78;;;;;;;21.81;60.32;102265.25;4967413;28;20042;-82
2022/07/11 10:45:58;;;;;;;8.82;6.75;;;;;;;22.10;60.65;102271.16;4969715;28;20477;-82
2022/07/11 10:48:25;;;;;;;6.97;4.50;;;;;;;22.40;59.46;102265.22;4968400;28;20039;-82
2022/07/11 10:51:01;;;;;;;7.82;5.45;;;;;;;22.57;59.54;102262.06;4969362;28;20031;-83
2022/07/11 10:53:32;;;;;;;8.88;5.65;;;;;;;22.76;57.40;102268.72;4969809;28;20038;-83
2022/07/11 10:56:06;;;;;;;8.55;5.53;;;;;;;22.95;57.04;102257.28;4965890;28;20141;-83
2022/07/11 10:58:32;;;;;;;8.20;5.43;;;;;;;23.22;54.99;102260.47;4966302;28;20034;-83
2022/07/11 11:01:12;;;;;;;7.45;4.90;;;;;;;23.48;56.65;102261.00;4969261;28;20026;-83
2022/07/11 11:03:42;;;;;;;8.43;5.97;;;;;;;23.45;55.47;102265.84;4969354;28;20035;-82
2022/07/11 11:06:08;;;;;;;6.47;5.63;;;;;;;23.09;55.53;102263.31;4968164;28;20117;-83
2022/07/11 11:11:05;;;;;;;7.30;4.70;;;;;;;22.53;57.94;102270.53;4961347;28;20062;-83
2022/07/11 11:13:35;;;;;;;7.32;4.30;;;;;;;22.20;58.54;102268.66;4959994;28;20353;-82
2022/07/11 11:16:02;;;;;;;5.78;4.35;;;;;;;21.91;59.32;102274.44;4966561;28;20036;-82
2022/07/11 11:18:35;;;;;;;6.38;4.97;;;;;;;21.58;60.02;102276.00;4965958;28;20039;-82
2022/07/11 11:21:04;;;;;;;5.82;5.20;;;;;;;21.38;60.69;102280.19;4966506;28;20502;-83
2022/07/11 11:23:41;;;;;;;5.90;4.63;;;;;;;21.40;61.20;102277.34;4967325;28;20031;-83
2022/07/11 11:26:12;;;;;;;6.65;4.57;;;;;;;21.44;61.09;102273.44;4960406;28;20153;-82
2022/07/11 11:28:54;;;;;;;7.05;4.60;;;;;;;21.73;60.40;102267.69;4967789;28;20428;-83
2022/07/11 11:31:20;;;;;;;6.10;4.18;;;;;;;21.75;60.29;102268.44;4964235;28;20093;-81
2022/07/11 11:33:47;;;;;;;5.03;4.53;;;;;;;21.92;59.43;102281.56;4962982;28;20400;-82
2022/07/11 11:36:17;;;;;;;21.88;15.05;;;;;;;22.13;58.78;102279.09;4968569;28;20412;-83